Colchester

*Note: All times are displayed in the local standard time of the station location.
**Rain - Equipment is designed to accurately record liquid precipitation; under conditions when precipitation is not in liquid form, the data displayed may not properly reflect rainfall values.

Date Max Temp
(°C)
Min Temp
(°C)
Avg Temp
(°C)
Rain (mm) Avg RH (%)
Sun, Aug 18, 2019 26.6 19.8 23.6 - 90.7
Sat, Aug 17, 2019 27.5 20.5 24.3 - 90.7
Fri, Aug 16, 2019 25.6 17.1 21.4 - 85.0
Thu, Aug 15, 2019 26.6 17.0 21.5 - 85.4
Wed, Aug 14, 2019 27.3 16.3 21.5 - 77.7
Tue, Aug 13, 2019 27.1 18.9 23.1 - 91.7
Mon, Aug 12, 2019 26.9 22.1 24.2 - 80.8
DateTime Avg Temp (°C) Rain (mm) RH (%)
Mon, Aug 19, 2019 14:00 24.8 - 87.3
Mon, Aug 19, 2019 13:00 24.2 - 90.6
Mon, Aug 19, 2019 12:00 24.2 - 89.2
Mon, Aug 19, 2019 11:00 23.7 - 90.0
Mon, Aug 19, 2019 10:00 22.7 - 92.1
Mon, Aug 19, 2019 09:00 21.4 - 99.7
Mon, Aug 19, 2019 08:00 20.9 - 99.9
Mon, Aug 19, 2019 07:00 20.1 - 99.9
Mon, Aug 19, 2019 06:00 19.0 - 99.9
Mon, Aug 19, 2019 05:00 19.7 - 99.9
Mon, Aug 19, 2019 04:00 20.3 - 99.9
Mon, Aug 19, 2019 03:00 20.8 - 99.9
Mon, Aug 19, 2019 02:00 21.3 - 99.9
Mon, Aug 19, 2019 01:00 21.3 - 99.9
Mon, Aug 19, 2019 00:00 20.4 - 99.9
Sun, Aug 18, 2019 23:00 20.1 - 99.9
Sun, Aug 18, 2019 22:00 22.1 - 95.1
Sun, Aug 18, 2019 21:00 23.9 - 99.0
Sun, Aug 18, 2019 20:00 24.1 - 90.1
Sun, Aug 18, 2019 19:00 24.4 - 85.7
Sun, Aug 18, 2019 18:00 24.1 - 84.7
Sun, Aug 18, 2019 17:00 24.0 - 83.1
Sun, Aug 18, 2019 16:00 22.6 - 93.5
Sun, Aug 18, 2019 15:00 21.0 - 99.6
Sun, Aug 18, 2019 14:00 25.8 - 82.6
Sun, Aug 18, 2019 13:00 26.1 - 77.8
Sun, Aug 18, 2019 12:00 26.1 - 80.2
Sun, Aug 18, 2019 11:00 24.9 - 85.6
Sun, Aug 18, 2019 10:00 24.3 - 87.3
Sun, Aug 18, 2019 09:00 23.3 - 93.2
Sun, Aug 18, 2019 08:00 23.1 - 95.6
Sun, Aug 18, 2019 07:00 23.2 - 95.1
Sun, Aug 18, 2019 06:00 23.0 - 94.7
Sun, Aug 18, 2019 05:00 23.0 - 92.0
Sun, Aug 18, 2019 04:00 23.6 - 91.9
Sun, Aug 18, 2019 03:00 24.5 - 87.4
Sun, Aug 18, 2019 02:00 24.6 - 89.2
Sun, Aug 18, 2019 01:00 24.5 - 94.4
Sun, Aug 18, 2019 00:00 24.2 - 94.4
Sat, Aug 17, 2019 23:00 24.3 - 96.4
Sat, Aug 17, 2019 22:00 23.8 - 97.8
Sat, Aug 17, 2019 21:00 24.0 - 95.1
Sat, Aug 17, 2019 20:00 24.8 - 92.9
Sat, Aug 17, 2019 19:00 26.2 - 82.8
Sat, Aug 17, 2019 18:00 26.9 - 80.1
Sat, Aug 17, 2019 17:00 27.2 - 76.5
Sat, Aug 17, 2019 16:00 27.0 - 79.8
Sat, Aug 17, 2019 15:00 26.8 - 81.6


asterix Register now to access more data! asterix